Time;durP1;ratioP1;P1;durP2;ratioP2;P2;SDS_P1;SDS_P2;PMS_P1;PMS_P2;Temp;Humidity;BMP_temperature;BMP_pressure;BME280_temperature;BME280_humidity;BME280_pressure;Samples;Min_cycle;Max_cycle;Signal;HPM_P1;HPM_P2
2023/09/20 00:01:04;;;;;;;26.80;7.30;;;;;;;11.05;82.36;99608.19;215258;1279;140264;-75
2023/09/20 00:06:11;;;;;;;6.90;6.30;;;;;;;11.04;82.46;99609.08;215080;1279;140652;-74
2023/09/20 00:11:18;;;;;;;10.10;6.50;;;;;;;10.95;82.36;99610.70;215124;1276;140465;-77
2023/09/20 00:16:22;;;;;;;9.80;6.20;;;;;;;10.87;82.53;99615.14;215338;1277;139972;-75
2023/09/20 00:21:28;;;;;;;6.70;5.40;;;;;;;10.88;82.92;99612.50;215795;1275;140595;-77
2023/09/20 00:26:33;;;;;;;7.60;6.70;;;;;;;10.81;82.73;99618.50;215300;1276;140948;-73
2023/09/20 00:31:38;;;;;;;14.50;6.40;;;;;;;10.78;82.81;99620.36;215006;1275;139996;-73
2023/09/20 00:36:41;;;;;;;11.60;6.20;;;;;;;10.78;83.11;99619.14;215134;1276;140459;-71
2023/09/20 00:41:45;;;;;;;7.00;6.30;;;;;;;10.80;83.22;99615.01;215272;1275;141262;-76
2023/09/20 00:46:47;;;;;;;8.70;6.60;;;;;;;10.80;83.37;99615.08;215252;1276;140914;-72
2023/09/20 00:51:51;;;;;;;6.70;5.90;;;;;;;10.79;83.29;99619.73;215220;1279;140760;-76
2023/09/20 00:56:55;;;;;;;12.00;6.90;;;;;;;10.78;83.47;99622.17;215171;1276;140833;-72
2023/09/20 01:02:00;;;;;;;8.40;7.20;;;;;;;10.72;83.39;99624.84;215199;1275;161768;-75
2023/09/20 01:07:04;;;;;;;8.20;7.10;;;;;;;10.70;83.63;99626.78;214964;1276;140174;-74
2023/09/20 01:12:07;;;;;;;6.90;6.20;;;;;;;10.69;83.53;99625.47;215843;1275;141462;-75
2023/09/20 01:17:14;;;;;;;6.30;5.50;;;;;;;10.64;83.40;99622.34;215011;1277;139805;-74
2023/09/20 01:22:19;;;;;;;8.40;5.90;;;;;;;10.57;83.38;99628.44;215695;1275;140921;-70
2023/09/20 01:27:24;;;;;;;7.90;5.90;;;;;;;10.53;83.63;99623.95;216848;1275;152435;-72
2023/09/20 01:32:29;;;;;;;9.10;5.30;;;;;;;10.56;83.90;99625.00;216447;1276;141759;-74
2023/09/20 01:37:35;;;;;;;7.10;5.70;;;;;;;10.62;84.51;99619.76;214943;1277;139989;-70
2023/09/20 01:42:38;;;;;;;8.10;5.50;;;;;;;10.69;85.03;99622.87;215839;1276;140579;-71
2023/09/20 01:47:49;;;;;;;6.90;6.10;;;;;;;10.76;85.70;99620.95;215800;1276;141098;-71
2023/09/20 01:52:57;;;;;;;10.40;6.70;;;;;;;10.88;86.31;99621.89;216136;1276;139951;-72
2023/09/20 01:58:05;;;;;;;8.80;6.70;;;;;;;10.95;86.51;99621.27;215562;1279;140339;-71
2023/09/20 02:03:14;;;;;;;8.70;7.10;;;;;;;11.01;86.67;99629.68;215231;1277;141531;-71
2023/09/20 02:08:19;;;;;;;7.50;6.50;;;;;;;11.04;86.64;99631.85;215337;1273;140720;-71
2023/09/20 02:13:22;;;;;;;7.10;5.90;;;;;;;11.04;86.96;99631.27;215272;1279;140909;-70
2023/09/20 02:18:26;;;;;;;16.10;7.50;;;;;;;11.04;87.23;99633.46;215857;1275;140483;-75
2023/09/20 02:23:30;;;;;;;6.80;6.20;;;;;;;11.06;87.19;99635.91;215247;1275;140090;-77
2023/09/20 02:28:34;;;;;;;8.70;6.70;;;;;;;11.08;87.36;99629.17;215045;1279;140332;-76
2023/09/20 02:33:38;;;;;;;9.10;6.40;;;;;;;11.09;87.65;99633.02;215793;1276;141203;-76
2023/09/20 02:38:42;;;;;;;7.00;5.60;;;;;;;11.08;87.52;99633.16;215494;1274;141629;-76
2023/09/20 02:43:45;;;;;;;10.40;7.50;;;;;;;11.10;87.87;99631.88;215261;1275;140389;-74
2023/09/20 02:48:50;;;;;;;7.00;6.30;;;;;;;11.14;88.21;99627.08;215493;1276;160551;-75
2023/09/20 02:53:55;;;;;;;7.40;6.60;;;;;;;11.16;88.26;99628.55;214984;1276;139849;-74
2023/09/20 02:58:58;;;;;;;7.40;6.50;;;;;;;11.17;88.61;99623.29;215660;1276;141266;-76
2023/09/20 03:04:01;;;;;;;9.10;7.10;;;;;;;11.20;88.72;99619.02;215401;1275;139988;-77
2023/09/20 03:09:06;;;;;;;8.50;7.40;;;;;;;11.22;88.86;99621.36;215459;1276;142622;-77
2023/09/20 03:14:13;;;;;;;7.00;6.00;;;;;;;11.24;88.87;99620.65;216454;1276;140722;-77
2023/09/20 03:19:20;;;;;;;10.60;7.10;;;;;;;11.26;89.11;99622.27;215868;1276;141732;-80
2023/09/20 03:24:23;;;;;;;8.50;7.20;;;;;;;11.26;89.19;99617.79;216455;1275;140339;-81
2023/09/20 03:29:26;;;;;;;11.30;7.00;;;;;;;11.26;89.41;99616.94;215856;1275;140002;-81
2023/09/20 03:34:29;;;;;;;8.60;7.70;;;;;;;11.30;89.40;99618.08;215483;1275;141304;-74
2023/09/20 03:39:35;;;;;;;4.10;3.80;;;;;;;11.34;89.68;99621.01;215348;1276;142343;-75
2023/09/20 03:44:39;;;;;;;13.50;8.80;;;;;;;11.37;89.88;99623.77;215740;1279;140482;-74
2023/09/20 03:49:43;;;;;;;8.40;7.60;;;;;;;11.38;89.77;99628.97;215458;1276;141892;-70
2023/09/20 03:54:51;;;;;;;10.60;8.70;;;;;;;11.36;89.72;99626.27;215273;1275;140001;-74
2023/09/20 03:59:57;;;;;;;12.50;8.10;;;;;;;11.34;89.86;99628.84;215070;1278;140010;-73
2023/09/20 04:05:10;;;;;;;8.60;7.80;;;;;;;11.32;89.72;99628.92;215144;1279;140838;-79
2023/09/20 04:10:18;;;;;;;9.30;6.90;;;;;;;11.30;90.07;99624.64;215294;1276;140181;-77
2023/09/20 04:15:24;;;;;;;8.80;8.00;;;;;;;11.30;90.31;99628.75;215058;1279;140016;-80
2023/09/20 04:20:29;;;;;;;7.50;6.70;;;;;;;11.29;90.39;99631.20;215464;1276;140532;-76
2023/09/20 04:25:33;;;;;;;9.30;8.20;;;;;;;11.31;90.43;99631.05;215246;1279;140579;-78
2023/09/20 04:30:38;;;;;;;10.20;8.20;;;;;;;11.30;90.16;99638.95;215441;1276;139947;-73
2023/09/20 04:35:43;;;;;;;11.00;6.90;;;;;;;11.30;90.41;99644.98;215213;1276;141793;-81
2023/09/20 04:40:48;;;;;;;11.90;8.90;;;;;;;11.31;90.40;99646.05;216188;1276;141478;-72
2023/09/20 04:45:52;;;;;;;8.80;8.00;;;;;;;11.33;90.48;99652.52;215407;1276;140180;-70
2023/09/20 04:50:56;;;;;;;9.60;7.80;;;;;;;11.34;90.74;99646.95;215697;1276;139983;-73
2023/09/20 04:56:01;;;;;;;16.80;8.10;;;;;;;11.39;90.62;99651.52;215501;1275;139719;-75
2023/09/20 05:01:09;;;;;;;9.60;7.70;;;;;;;11.40;90.27;99652.39;215167;1275;140462;-72
2023/09/20 05:06:15;;;;;;;8.80;8.00;;;;;;;11.39;90.40;99653.77;215165;1276;140151;-72
2023/09/20 05:11:20;;;;;;;7.90;6.10;;;;;;;11.44;90.59;99652.67;215634;1276;140209;-73
2023/09/20 05:16:23;;;;;;;9.50;8.40;;;;;;;11.50;90.50;99655.83;215925;1275;140869;-72
2023/09/20 05:21:26;;;;;;;10.60;9.50;;;;;;;11.57;90.77;99661.33;215323;1276;140362;-71
2023/09/20 05:26:29;;;;;;;7.40;6.40;;;;;;;11.64;91.09;99659.33;215338;1276;142559;-73
2023/09/20 05:31:33;;;;;;;9.00;8.10;;;;;;;11.74;91.20;99664.47;214923;1276;141020;-70
2023/09/20 05:36:36;;;;;;;15.10;10.00;;;;;;;11.87;91.41;99663.94;215388;1276;141512;-71
2023/09/20 05:41:39;;;;;;;7.40;6.70;;;;;;;11.99;91.52;99671.95;215397;1276;141532;-74
2023/09/20 05:46:42;;;;;;;8.80;7.40;;;;;;;12.11;91.32;99674.72;215851;1276;139780;-76
2023/09/20 05:51:45;;;;;;;8.50;6.70;;;;;;;12.25;91.31;99675.48;215497;1276;141083;-74
2023/09/20 05:56:51;;;;;;;14.40;6.70;;;;;;;12.39;91.47;99672.68;215537;1275;141578;-72
2023/09/20 06:01:58;;;;;;;6.60;5.60;;;;;;;12.55;91.26;99676.61;215805;1275;140558;-73
2023/09/20 06:07:04;;;;;;;8.20;6.30;;;;;;;12.70;90.86;99682.85;215274;1276;140254;-72
2023/09/20 06:12:07;;;;;;;15.00;6.10;;;;;;;12.85;90.83;99683.39;214732;1279;139954;-72
2023/09/20 06:17:11;;;;;;;7.90;5.00;;;;;;;13.00;90.68;99689.17;215497;1276;142083;-73
2023/09/20 06:22:15;;;;;;;6.40;5.40;;;;;;;13.15;90.51;99687.58;214781;1279;140361;-75
2023/09/20 06:27:21;;;;;;;8.60;5.20;;;;;;;13.29;90.24;99688.10;214810;1276;140199;-75
2023/09/20 06:32:25;;;;;;;5.70;3.90;;;;;;;13.43;89.96;99687.21;215875;1274;139880;-77
2023/09/20 06:37:29;;;;;;;4.40;4.00;;;;;;;13.58;89.70;99697.67;215220;1275;140067;-71
2023/09/20 06:42:32;;;;;;;5.00;3.70;;;;;;;13.74;89.44;99699.74;214786;1276;140361;-74
2023/09/20 06:47:35;;;;;;;3.60;3.30;;;;;;;13.98;89.04;99703.08;215700;1276;153753;-78
2023/09/20 06:52:39;;;;;;;3.60;3.30;;;;;;;14.42;88.82;99702.12;216397;1276;141994;-75
2023/09/20 06:57:43;;;;;;;3.80;3.00;;;;;;;15.10;88.07;99700.35;215500;1276;141372;-77
2023/09/20 07:02:49;;;;;;;3.70;3.20;;;;;;;16.12;87.22;99701.30;214926;1276;140313;-73
2023/09/20 07:07:54;;;;;;;4.00;3.10;;;;;;;17.35;85.68;99711.31;214757;1278;140131;-73
2023/09/20 07:12:57;;;;;;;2.40;2.20;;;;;;;18.76;83.80;99713.30;215043;1279;140263;-76
2023/09/20 07:18:01;;;;;;;3.70;3.40;;;;;;;20.18;81.72;99718.77;214960;1274;140173;-71
2023/09/20 07:23:04;;;;;;;3.80;3.00;;;;;;;21.54;79.57;99723.66;215154;1279;139631;-69
2023/09/20 07:28:07;;;;;;;2.80;2.60;;;;;;;22.45;77.09;99724.59;215885;1275;140045;-69
2023/09/20 07:33:19;;;;;;;2.60;2.40;;;;;;;22.99;75.01;99724.56;215623;1275;730593;-68
2023/09/20 07:38:29;;;;;;;7.60;2.40;;;;;;;23.22;72.20;99723.98;215948;1276;139708;-68
2023/09/20 07:43:34;;;;;;;3.50;2.80;;;;;;;23.27;70.54;99724.30;215025;1277;140666;-76
2023/09/20 07:48:37;;;;;;;2.20;2.00;;;;;;;23.11;69.22;99718.80;215610;1276;140233;-68
2023/09/20 07:53:42;;;;;;;2.40;2.30;;;;;;;23.14;68.92;99716.69;215112;1279;139745;-71
2023/09/20 07:58:47;;;;;;;6.70;3.10;;;;;;;23.26;68.29;99714.70;216205;1276;139344;-68
2023/09/20 08:03:52;;;;;;;2.40;2.20;;;;;;;23.25;66.98;99714.29;215692;1276;139203;-69
2023/09/20 08:08:57;;;;;;;;;;;;;;;22.95;65.66;99713.67;214997;1276;140017;-67
2023/09/20 08:14:06;;;;;;;2.80;2.20;;;;;;;22.82;65.36;99718.09;215581;1277;126200;-68
2023/09/20 09:02:15;;;;;;;2.60;2.30;;;;;;;23.00;60.99;99709.33;214905;1276;139527;-70
2023/09/20 09:07:23;;;;;;;1.80;1.70;;;;;;;22.87;60.64;99709.10;214688;1276;140460;-73
2023/09/20 09:12:26;;;;;;;2.20;1.50;;;;;;;23.04;61.10;99707.33;215297;1279;139959;-70
2023/09/20 09:17:39;;;;;;;2.50;1.60;;;;;;;23.15;60.17;99710.89;215536;1276;139934;-69
2023/09/20 09:22:45;;;;;;;1.40;1.30;;;;;;;23.26;59.69;99710.34;215347;1273;139699;-74
2023/09/20 09:27:49;;;;;;;4.00;1.10;;;;;;;23.46;59.80;99709.08;215201;1276;140930;-70
2023/09/20 09:32:52;;;;;;;2.00;1.80;;;;;;;23.64;58.67;99712.55;215527;1276;140528;-68
2023/09/20 09:38:01;;;;;;;3.80;1.60;;;;;;;23.72;58.04;99714.84;214734;1279;139801;-70
2023/09/20 09:43:13;;;;;;;2.20;1.30;;;;;;;23.67;57.29;99708.63;214902;1277;143621;-71
2023/09/20 09:48:17;;;;;;;2.00;1.20;;;;;;;23.69;57.18;99707.16;214596;1279;140072;-72
2023/09/20 09:53:22;;;;;;;3.00;1.70;;;;;;;23.83;57.15;99699.84;214540;1276;140091;-71
2023/09/20 09:58:26;;;;;;;;;;;;;;;23.98;57.17;99701.66;214462;1276;141342;-70
2023/09/20 10:03:34;;;;;;;2.50;1.80;;;;;;;24.00;56.11;99704.16;215767;1279;126333;-69
2023/09/20 10:08:38;;;;;;;;;;;;;;;23.86;55.82;99701.63;214656;1279;139803;-70
2023/09/20 10:13:45;;;;;;;1.50;1.20;;;;;;;23.91;55.91;99695.81;214811;1277;126299;-70
2023/09/20 10:18:52;;;;;;;2.10;1.60;;;;;;;24.13;56.02;99701.08;214932;1279;139486;-70
2023/09/20 10:24:10;;;;;;;2.30;1.70;;;;;;;24.17;55.08;99699.88;214768;1277;140287;-71
2023/09/20 10:29:28;;;;;;;2.00;1.30;;;;;;;23.91;54.91;99696.73;214761;1277;139195;-71
2023/09/20 10:34:40;;;;;;;3.10;1.50;;;;;;;23.88;54.78;99694.53;214658;1279;139900;-71
2023/09/20 10:39:48;;;;;;;1.90;1.70;;;;;;;24.11;55.39;99690.83;214460;1276;140424;-70
2023/09/20 10:45:00;;;;;;;4.40;1.50;;;;;;;24.40;54.87;99686.87;214573;1279;139161;-72
2023/09/20 10:50:11;;;;;;;1.20;1.10;;;;;;;24.59;54.54;99684.59;214690;1276;142466;-70
2023/09/20 10:55:28;;;;;;;1.70;1.40;;;;;;;24.74;53.67;99684.96;215467;1276;140723;-71
2023/09/20 11:00:36;;;;;;;4.40;1.40;;;;;;;24.68;53.70;99685.35;216246;1276;139958;-71
2023/09/20 11:05:39;;;;;;;1.70;1.60;;;;;;;24.73;53.29;99687.09;214550;1277;139091;-74
2023/09/20 11:10:44;;;;;;;5.30;1.60;;;;;;;24.67;52.77;99695.27;214669;1276;141030;-71
2023/09/20 11:15:48;;;;;;;1.70;1.60;;;;;;;24.67;52.49;99687.41;216003;1276;139761;-71
2023/09/20 11:20:51;;;;;;;2.40;1.20;;;;;;;24.59;52.29;99679.82;214751;1276;140088;-69
2023/09/20 11:25:55;;;;;;;1.50;1.40;;;;;;;24.67;52.40;99677.73;217221;1276;140346;-73
2023/09/20 11:30:58;;;;;;;4.30;2.50;;;;;;;24.70;52.28;99673.41;217214;1276;140673;-73
2023/09/20 11:36:15;;;;;;;1.10;1.10;;;;;;;24.85;52.03;99669.26;215333;1276;140245;-72
2023/09/20 11:41:20;;;;;;;2.40;1.30;;;;;;;24.96;51.66;99667.67;215840;1276;140702;-71
2023/09/20 11:46:28;;;;;;;1.70;1.60;;;;;;;24.92;51.34;99664.06;214795;1279;140815;-71
2023/09/20 11:51:36;;;;;;;1.40;1.30;;;;;;;24.80;51.18;99667.48;214692;1279;139545;-69
2023/09/20 11:56:47;;;;;;;3.20;1.40;;;;;;;24.62;51.01;99659.48;215111;1276;139270;-70
2023/09/20 12:01:50;;;;;;;2.50;1.80;;;;;;;24.67;50.99;99652.91;215206;1279;140582;-68
2023/09/20 12:06:56;;;;;;;1.70;1.60;;;;;;;24.78;51.04;99652.59;215070;1276;139207;-72
2023/09/20 12:12:00;;;;;;;7.80;1.80;;;;;;;24.89;51.03;99646.77;215140;1279;139457;-73
2023/09/20 12:17:06;;;;;;;1.60;1.20;;;;;;;24.93;50.92;99650.33;215318;1277;138947;-71
2023/09/20 12:22:09;;;;;;;4.20;1.40;;;;;;;24.81;50.51;99647.57;214619;1279;139541;-70
2023/09/20 12:27:13;;;;;;;2.50;1.80;;;;;;;24.97;50.93;99643.09;214802;1277;139370;-71
2023/09/20 12:32:16;;;;;;;1.90;1.50;;;;;;;24.82;50.01;99636.96;214890;1279;140291;-71
2023/09/20 12:37:21;;;;;;;2.10;1.80;;;;;;;24.69;50.00;99635.45;214970;1277;140715;-72
2023/09/20 12:42:27;;;;;;;2.80;1.60;;;;;;;24.74;50.31;99630.66;214844;1276;140353;-72
2023/09/20 12:47:34;;;;;;;2.40;1.80;;;;;;;24.74;50.46;99626.02;214843;1276;140012;-79
2023/09/20 12:52:39;;;;;;;3.10;1.80;;;;;;;24.86;50.19;99627.27;215132;1277;139720;-82
2023/09/20 12:57:42;;;;;;;2.40;1.90;;;;;;;24.95;50.01;99613.78;215101;1277;139873;-83
2023/09/20 13:02:51;;;;;;;2.10;1.40;;;;;;;24.95;49.74;99609.35;215179;1279;139774;-73
2023/09/20 13:07:57;;;;;;;2.90;1.90;;;;;;;24.80;49.15;99606.56;214913;1277;139295;-78
2023/09/20 13:13:08;;;;;;;2.40;1.60;;;;;;;24.67;49.31;99609.61;215369;1276;139238;-75
2023/09/20 13:18:13;;;;;;;3.50;1.70;;;;;;;24.71;49.57;99609.14;215651;1275;139998;-73
2023/09/20 13:23:17;;;;;;;2.70;2.00;;;;;;;24.76;49.66;99610.58;214888;1279;140625;-73
2023/09/20 13:28:20;;;;;;;5.60;2.20;;;;;;;24.61;49.45;99607.51;215887;1275;139286;-74
2023/09/20 13:33:24;;;;;;;2.10;1.70;;;;;;;24.42;49.49;99606.37;215617;1279;139210;-72
2023/09/20 13:38:29;;;;;;;2.50;2.00;;;;;;;24.29;49.68;99597.20;216601;1279;140445;-73
2023/09/20 13:43:33;;;;;;;4.40;2.30;;;;;;;24.25;49.73;99596.42;215618;1276;140137;-75
2023/09/20 13:48:37;;;;;;;1.30;1.10;;;;;;;24.37;50.24;99601.11;215402;1279;139166;-74
2023/09/20 13:53:43;;;;;;;3.10;1.40;;;;;;;24.35;50.15;99596.36;216292;1276;140583;-73
2023/09/20 13:58:48;;;;;;;3.10;1.50;;;;;;;24.28;50.01;99592.57;214871;1275;140016;-71
2023/09/20 14:03:52;;;;;;;3.80;1.60;;;;;;;24.24;50.04;99587.95;214976;1277;141677;-71
2023/09/20 14:08:57;;;;;;;1.50;1.40;;;;;;;24.15;49.89;99587.93;215856;1275;139497;-72
2023/09/20 14:14:04;;;;;;;3.10;1.70;;;;;;;24.03;49.97;99581.36;214731;1277;140246;-71
2023/09/20 14:19:09;;;;;;;1.80;1.70;;;;;;;23.95;49.93;99570.54;215097;1276;139200;-72
2023/09/20 14:24:13;;;;;;;2.60;1.90;;;;;;;23.89;50.07;99567.87;214792;1277;141288;-73
2023/09/20 14:29:17;;;;;;;1.80;1.70;;;;;;;23.79;49.97;99563.99;214767;1279;139028;-73
2023/09/20 14:34:22;;;;;;;3.90;2.00;;;;;;;23.61;50.39;99563.23;214363;1280;139418;-73
2023/09/20 14:39:26;;;;;;;1.40;1.30;;;;;;;23.64;50.74;99560.21;214937;1279;141187;-71
2023/09/20 14:44:30;;;;;;;2.90;2.20;;;;;;;23.65;51.02;99560.98;215844;1279;140001;-73
2023/09/20 14:49:34;;;;;;;2.30;1.50;;;;;;;23.65;51.18;99566.11;214986;1277;140050;-73
2023/09/20 14:54:38;;;;;;;2.10;2.00;;;;;;;23.71;51.12;99563.34;214628;1279;140200;-69
2023/09/20 14:59:46;;;;;;;3.40;1.80;;;;;;;23.66;51.12;99560.88;215589;1275;139571;-71
2023/09/20 15:04:50;;;;;;;1.60;1.50;;;;;;;23.69;51.06;99562.38;215932;1276;139395;-72
2023/09/20 15:09:53;;;;;;;2.20;1.80;;;;;;;23.64;51.28;99561.49;215303;1276;141044;-74
2023/09/20 15:15:00;;;;;;;4.00;1.80;;;;;;;23.62;51.26;99553.61;215300;1277;140299;-72
2023/09/20 15:20:05;;;;;;;2.50;1.80;;;;;;;23.38;51.13;99558.04;216576;1277;152299;-73
2023/09/20 15:25:10;;;;;;;2.40;1.60;;;;;;;23.33;51.44;99558.48;216255;1276;139922;-73
2023/09/20 15:30:15;;;;;;;14.50;2.90;;;;;;;23.28;52.28;99563.96;216158;1276;140121;-71
2023/09/20 15:35:19;;;;;;;4.20;2.20;;;;;;;23.24;52.92;99566.02;215532;1276;140417;-70
2023/09/20 15:40:26;;;;;;;4.70;2.50;;;;;;;23.15;53.06;99565.59;215298;1276;139613;-74
2023/09/20 15:45:33;;;;;;;2.70;2.40;;;;;;;22.98;53.83;99566.41;215146;1279;139628;-78
2023/09/20 15:50:37;;;;;;;5.50;2.10;;;;;;;22.76;54.57;99559.39;215004;1279;139086;-76
2023/09/20 15:55:39;;;;;;;2.10;1.70;;;;;;;22.51;54.88;99554.23;215282;1277;233284;-76
2023/09/20 16:00:44;;;;;;;4.10;1.70;;;;;;;22.23;55.62;99549.83;214798;1277;140626;-80
2023/09/20 16:05:48;;;;;;;6.00;2.50;;;;;;;21.96;56.19;99547.88;214952;1276;139952;-82
2023/09/20 16:10:54;;;;;;;3.30;2.60;;;;;;;21.72;56.91;99540.60;215060;1276;139588;-79
2023/09/20 16:15:58;;;;;;;3.30;2.30;;;;;;;21.50;57.62;99538.77;215369;1277;139484;-79
2023/09/20 16:21:01;;;;;;;2.80;2.50;;;;;;;21.24;58.20;99544.62;214790;1277;138720;-76
2023/09/20 16:26:04;;;;;;;2.60;2.00;;;;;;;20.97;58.85;99546.91;215070;1276;139333;-75
2023/09/20 16:31:09;;;;;;;2.10;2.00;;;;;;;20.69;59.37;99546.91;215190;1276;235414;-76
2023/09/20 16:36:14;;;;;;;4.40;2.50;;;;;;;20.45;59.98;99546.30;214901;1279;139481;-70
2023/09/20 16:41:21;;;;;;;2.80;2.10;;;;;;;20.17;60.39;99544.38;215035;1276;140026;-76
2023/09/20 16:46:25;;;;;;;14.50;2.10;;;;;;;19.83;61.06;99544.48;215302;1279;140193;-74
2023/09/20 16:51:27;;;;;;;2.50;2.20;;;;;;;19.47;61.43;99542.77;215226;1276;140991;-74
2023/09/20 16:56:29;;;;;;;2.20;2.00;;;;;;;19.21;62.30;99545.54;216810;1276;141500;-72
2023/09/20 17:01:32;;;;;;;1.90;1.50;;;;;;;19.03;62.67;99547.02;216262;1276;139850;-75
2023/09/20 17:06:36;;;;;;;3.00;2.40;;;;;;;18.71;62.86;99551.02;214983;1276;140445;-75
2023/09/20 17:11:38;;;;;;;2.00;1.90;;;;;;;18.40;63.60;99559.35;214927;1276;140316;-73
2023/09/20 17:16:42;;;;;;;2.80;2.60;;;;;;;18.23;64.13;99561.85;215281;1275;140402;-72
2023/09/20 17:21:45;;;;;;;2.70;2.40;;;;;;;18.07;64.66;99567.71;215032;1279;139959;-77
2023/09/20 17:26:48;;;;;;;2.40;2.20;;;;;;;17.78;65.05;99569.21;215881;1276;142536;-74
2023/09/20 17:31:56;;;;;;;2.00;1.90;;;;;;;17.47;65.64;99573.44;215803;1276;142466;-75
2023/09/20 17:36:58;;;;;;;5.10;3.60;;;;;;;17.27;66.18;99574.31;216249;1275;140322;-76
2023/09/20 17:42:02;;;;;;;3.60;2.30;;;;;;;17.09;66.63;99578.71;215280;1276;140521;-77
2023/09/20 17:47:04;;;;;;;5.00;3.50;;;;;;;16.91;67.28;99583.90;216116;1276;140388;-76
2023/09/20 17:52:11;;;;;;;2.20;2.00;;;;;;;16.86;68.01;99585.17;215071;1277;140133;-78
2023/09/20 17:57:14;;;;;;;4.50;2.60;;;;;;;16.74;68.19;99587.95;214634;1279;140509;-75
2023/09/20 18:02:20;;;;;;;3.90;2.60;;;;;;;16.68;68.65;99586.16;215818;1274;140507;-77
2023/09/20 18:07:23;;;;;;;2.30;1.90;;;;;;;16.60;68.90;99591.98;214618;1279;139925;-78
2023/09/20 18:12:26;;;;;;;2.40;2.20;;;;;;;16.46;69.02;99594.77;214612;1275;141096;-77
2023/09/20 18:17:32;;;;;;;8.50;3.00;;;;;;;16.36;69.52;99597.86;214749;1279;140942;-77
2023/09/20 18:22:35;;;;;;;3.70;2.80;;;;;;;16.22;69.76;99599.80;215316;1276;141655;-76
2023/09/20 18:27:40;;;;;;;2.40;2.20;;;;;;;15.99;70.15;99596.60;214974;1279;143432;-76
2023/09/20 18:32:45;;;;;;;13.70;3.20;;;;;;;15.77;70.42;99593.86;215597;1275;139607;-74
2023/09/20 18:37:49;;;;;;;2.70;2.40;;;;;;;15.63;71.18;99598.11;214718;1276;141621;-76
2023/09/20 18:42:56;;;;;;;6.90;2.80;;;;;;;15.55;71.26;99595.66;214775;1276;140265;-76
2023/09/20 18:48:00;;;;;;;2.90;2.70;;;;;;;15.42;71.82;99590.17;214573;1276;141295;-77
2023/09/20 18:53:04;;;;;;;4.00;2.50;;;;;;;15.38;72.25;99585.80;214811;1276;140083;-72
2023/09/20 18:58:13;;;;;;;2.00;1.90;;;;;;;15.27;72.51;99592.00;214914;1275;142112;-77
2023/09/20 19:03:17;;;;;;;4.40;4.00;;;;;;;15.09;72.75;99595.80;215052;1275;140537;-77
2023/09/20 19:08:21;;;;;;;6.70;3.10;;;;;;;14.97;73.42;99600.20;216944;1275;140527;-78
2023/09/20 19:13:27;;;;;;;4.50;3.70;;;;;;;14.94;73.72;99603.98;216822;1276;140855;-78
2023/09/20 19:18:31;;;;;;;3.50;2.80;;;;;;;14.89;73.77;99601.38;216689;1275;140628;-78
2023/09/20 19:23:34;;;;;;;3.20;2.90;;;;;;;14.85;74.01;99605.23;216448;1276;142117;-78
2023/09/20 19:28:37;;;;;;;5.30;3.30;;;;;;;14.80;73.87;99607.84;216125;1275;140775;-77
2023/09/20 19:33:40;;;;;;;5.60;3.10;;;;;;;14.66;73.97;99611.67;215048;1277;350270;-77
2023/09/20 19:38:52;;;;;;;4.90;4.20;;;;;;;14.58;74.20;99613.16;215773;1278;140274;-77
2023/09/20 19:43:54;;;;;;;5.40;3.70;;;;;;;14.42;74.45;99612.08;215420;1276;140460;-77
2023/09/20 19:48:58;;;;;;;5.10;3.80;;;;;;;14.29;74.59;99606.80;215437;1278;140126;-77
2023/09/20 19:54:04;;;;;;;4.10;3.70;;;;;;;14.22;75.58;99602.96;214864;1275;140022;-76
2023/09/20 19:59:08;;;;;;;3.90;3.60;;;;;;;14.16;75.73;99605.67;215025;1276;140069;-75
2023/09/20 20:04:12;;;;;;;3.90;3.60;;;;;;;14.11;76.03;99604.56;216257;1276;140067;-76
2023/09/20 20:09:18;;;;;;;;;;;;;;;14.09;75.92;99602.25;215092;1275;139776;-75
2023/09/20 20:14:21;;;;;;;4.40;4.00;;;;;;;14.01;76.46;99600.84;215467;1276;128807;-74
2023/09/20 20:19:23;;;;;;;6.00;4.30;;;;;;;13.96;76.27;99594.52;215166;1276;141297;-75
2023/09/20 20:24:28;;;;;;;6.40;5.40;;;;;;;13.90;76.42;99593.27;214911;1276;141069;-75
2023/09/20 20:29:30;;;;;;;4.90;3.90;;;;;;;13.88;76.82;99588.95;214920;1276;140017;-75
2023/09/20 20:34:36;;;;;;;9.80;4.30;;;;;;;13.84;76.85;99589.10;215610;1276;140503;-75
2023/09/20 20:39:39;;;;;;;5.20;4.60;;;;;;;13.75;76.60;99591.41;215944;1276;139969;-74
2023/09/20 20:44:41;;;;;;;5.40;4.10;;;;;;;13.65;76.96;99593.13;215922;1276;140504;-75
2023/09/20 20:49:45;;;;;;;10.20;4.60;;;;;;;13.56;77.13;99603.06;214868;1276;140246;-75
2023/09/20 20:54:52;;;;;;;5.90;4.30;;;;;;;13.50;77.09;99597.94;214798;1276;140624;-76
2023/09/20 20:59:58;;;;;;;4.80;4.00;;;;;;;13.40;77.35;99600.55;215291;1275;141835;-75
2023/09/20 21:05:01;;;;;;;4.00;3.70;;;;;;;13.30;77.47;99596.88;214991;1279;140554;-75
2023/09/20 21:10:04;;;;;;;6.50;5.30;;;;;;;13.26;78.10;99590.67;217531;1276;139746;-76
2023/09/20 21:15:08;;;;;;;14.30;6.10;;;;;;;13.26;78.22;99594.75;215771;1276;141057;-75
2023/09/20 21:20:14;;;;;;;4.80;3.60;;;;;;;13.27;78.63;99586.24;216540;1276;140626;-75
2023/09/20 21:25:18;;;;;;;6.20;4.50;;;;;;;13.23;78.51;99586.74;215580;1276;140677;-75
2023/09/20 21:30:23;;;;;;;5.70;3.70;;;;;;;13.18;78.49;99584.56;215523;1275;140425;-76
2023/09/20 21:35:30;;;;;;;4.90;3.90;;;;;;;13.15;78.94;99583.41;215500;1276;140143;-75
2023/09/20 21:40:35;;;;;;;17.00;4.40;;;;;;;13.20;78.98;99577.56;214954;1275;140208;-75
2023/09/20 21:45:38;;;;;;;6.10;3.40;;;;;;;13.23;79.31;99569.84;215494;1275;141462;-75
2023/09/20 21:50:41;;;;;;;7.70;5.60;;;;;;;13.21;79.09;99571.85;215903;1276;139735;-75
2023/09/20 21:55:44;;;;;;;5.90;5.20;;;;;;;13.22;79.44;99571.90;215583;1276;140774;-73
2023/09/20 22:00:47;;;;;;;10.50;4.50;;;;;;;13.24;79.60;99565.77;215314;1276;141919;-75
2023/09/20 22:05:49;;;;;;;6.20;3.70;;;;;;;13.25;79.70;99568.40;215001;1276;141173;-76
2023/09/20 22:10:56;;;;;;;6.90;4.10;;;;;;;13.26;79.73;99563.11;214803;1275;140627;-74
2023/09/20 22:15:59;;;;;;;4.70;4.30;;;;;;;13.25;79.70;99562.89;214947;1276;139947;-75
2023/09/20 22:21:11;;;;;;;5.80;4.40;;;;;;;13.25;79.64;99559.73;214978;1276;140359;-75
2023/09/20 22:26:15;;;;;;;5.00;3.80;;;;;;;13.24;80.09;99558.61;215066;1279;140717;-75
2023/09/20 22:31:18;;;;;;;5.70;4.40;;;;;;;13.22;79.96;99553.92;214986;1275;141039;-74
2023/09/20 22:36:21;;;;;;;6.70;4.40;;;;;;;13.21;79.96;99549.36;215375;1276;140142;-75
2023/09/20 22:41:26;;;;;;;17.10;4.20;;;;;;;13.19;80.06;99545.60;214888;1279;141011;-75
2023/09/20 22:46:29;;;;;;;4.10;3.60;;;;;;;13.19;80.20;99541.65;215101;1275;141240;-74
2023/09/20 22:51:32;;;;;;;5.00;4.00;;;;;;;13.22;80.57;99541.30;216476;1275;140801;-75
2023/09/20 22:56:43;;;;;;;5.80;4.30;;;;;;;13.25;80.54;99540.79;216257;1275;141160;-75
2023/09/20 23:01:48;;;;;;;3.60;3.30;;;;;;;13.30;80.92;99537.77;216088;1276;140106;-75
2023/09/20 23:06:50;;;;;;;5.50;3.20;;;;;;;13.33;80.79;99538.11;215356;1275;141479;-75
2023/09/20 23:11:53;;;;;;;4.30;3.40;;;;;;;13.38;81.06;99544.05;216588;1276;142976;-72
2023/09/20 23:17:01;;;;;;;4.00;3.50;;;;;;;13.44;81.22;99545.15;216289;1275;140809;-75
2023/09/20 23:22:11;;;;;;;7.10;3.50;;;;;;;13.53;81.50;99542.02;216552;1276;140231;-75
2023/09/20 23:27:16;;;;;;;6.00;4.00;;;;;;;13.60;81.57;99540.70;215284;1275;140240;-74
2023/09/20 23:32:20;;;;;;;4.90;3.90;;;;;;;13.65;81.45;99539.60;215523;1277;141083;-73
2023/09/20 23:37:24;;;;;;;6.20;3.90;;;;;;;13.68;81.54;99535.28;215338;1275;140143;-75
2023/09/20 23:42:27;;;;;;;5.20;3.60;;;;;;;13.71;81.71;99528.17;215501;1275;141262;-74
2023/09/20 23:47:31;;;;;;;5.60;3.70;;;;;;;13.74;81.74;99521.77;215760;1275;140216;-75
2023/09/20 23:52:35;;;;;;;4.60;3.30;;;;;;;13.75;81.58;99520.85;215178;1276;141272;-75
2023/09/20 23:57:40;;;;;;;4.20;3.50;;;;;;;13.75;81.53;99518.66;215631;1276;139256;-74
